Terminal Aerodrome Forecast
Issued by NWS Houston/Galveston TX

Home | Current Version | Previous Version | Text Only | Print | Product List | Glossary On
Versions: 1 2 3 4 5 6 7 8 9 10 11 12 13 14 15 16 17 18 19 20 21 22 23 24 25 26 27 28 29 30 31 32 33 34 35
000
FTUS44 KHGX 230928 AAA
TAFHOU
TAF AMD
KHOU 230928Z 2309/2406 30008KT P6SM SKC WS012/32028KT
     FM231000 31010KT P6SM SKC
     FM232100 26005KT P6SM SKC
     FM240100 19004KT P6SM SKC=

USA.gov is the U.S. government's official web portal to all federal, state and local government web resources and services.